Terminal Aerodrome Forecast
Issued by NWS

Home | Current Version | Previous Version | Text Only | Print | Product List | Glossary On
Versions: 1 2 3 4 5 6 7 8 9 10 11 12 13 14 15 16 17 18 19 20
691
FTUS44 KMAF 232320
TAFPEQ
TAF
KPEQ 232320Z 2400/2424 25024G34KT P6SM SKC
     FM240100 25014G24KT P6SM SKC
     FM240300 25011KT P6SM SKC
     FM241800 27015G20KT P6SM SKC=

USA.gov is the U.S. government's official web portal to all federal, state and local government web resources and services.